createdAt,value
2018-02-21T00:00:04.523Z,20.10
2018-02-21T00:02:33.443Z,20.20
2018-02-21T00:05:01.551Z,20.20
2018-02-21T00:07:29.615Z,20.10
2018-02-21T00:09:57.800Z,20.20
2018-02-21T00:12:25.835Z,20.20
2018-02-21T00:14:53.883Z,20.20
2018-02-21T00:17:22.795Z,20.20
2018-02-21T00:19:50.840Z,20.20
2018-02-21T00:22:19.619Z,20.20
2018-02-21T00:24:47.999Z,20.20
2018-02-21T00:27:16.055Z,20.20
2018-02-21T00:29:44.098Z,20.20
2018-02-21T00:32:12.275Z,20.20
2018-02-21T00:34:40.379Z,20.10
2018-02-21T00:37:08.419Z,20.20
2018-02-21T00:39:36.590Z,20.20
2018-02-21T00:42:04.645Z,20.10
2018-02-21T00:44:32.760Z,20.10
2018-02-21T00:47:00.945Z,20.00
2018-02-21T00:49:28.995Z,20.00
2018-02-21T00:51:57.038Z,20.00
2018-02-21T00:54:25.431Z,19.90
2018-02-21T00:56:53.481Z,19.80
2018-02-21T00:59:22.263Z,19.90
2018-02-21T01:01:51.174Z,19.90
2018-02-21T01:04:19.286Z,19.90
2018-02-21T01:06:47.412Z,19.90
2018-02-21T01:09:16.348Z,20.00
2018-02-21T01:11:44.392Z,20.00
2018-02-21T01:14:12.500Z,19.90
2018-02-21T01:16:40.667Z,19.90
2018-02-21T01:19:08.711Z,19.80
2018-02-21T01:21:36.747Z,19.70
2018-02-21T01:24:05.036Z,19.70
2018-02-21T01:26:33.955Z,19.80
2018-02-21T01:29:01.995Z,19.70
2018-02-21T01:31:30.911Z,19.70
2018-02-21T01:33:59.032Z,19.70
2018-02-21T01:36:27.081Z,19.70
2018-02-21T01:38:55.263Z,19.70
2018-02-21T01:41:23.311Z,19.70
2018-02-21T01:43:51.418Z,19.60
2018-02-21T01:46:19.600Z,19.60
2018-02-21T01:48:47.653Z,19.60
2018-02-21T01:51:15.742Z,19.60
2018-02-21T01:53:44.040Z,19.50
2018-02-21T01:56:12.094Z,19.50
2018-02-21T01:58:40.148Z,19.50
2018-02-21T02:01:08.325Z,19.50
2018-02-21T02:03:36.363Z,19.50
2018-02-21T02:06:05.156Z,19.40
2018-02-21T02:08:34.232Z,19.50
2018-02-21T02:11:03.023Z,19.30
2018-02-21T02:13:31.802Z,19.40
2018-02-21T02:15:59.976Z,19.40
2018-02-21T02:18:28.023Z,19.40
2018-02-21T02:20:56.108Z,19.30
2018-02-21T02:23:24.403Z,19.40
2018-02-21T02:25:52.557Z,19.40
2018-02-21T02:28:20.735Z,19.30
2018-02-21T02:30:49.028Z,19.30
2018-02-21T02:33:17.323Z,19.30
2018-02-21T02:35:46.212Z,19.20
2018-02-21T02:38:26.700Z,19.30
2018-02-21T02:40:54.735Z,19.30
2018-02-21T02:43:22.884Z,19.20
2018-02-21T02:45:51.055Z,19.10
2018-02-21T02:48:19.108Z,19.20
2018-02-21T02:50:47.155Z,19.00
2018-02-21T02:53:16.072Z,19.10
2018-02-21T02:55:44.106Z,19.00
2018-02-21T02:58:12.903Z,19.00
2018-02-21T03:00:41.833Z,19.00
2018-02-21T03:03:09.878Z,18.90
2018-02-21T03:05:38.668Z,19.10
2018-02-21T03:08:12.060Z,19.00
2018-02-21T03:10:40.267Z,19.10
2018-02-21T03:13:08.319Z,19.10
2018-02-21T03:15:36.559Z,19.10
2018-02-21T03:18:04.603Z,19.20
2018-02-21T03:20:32.652Z,19.10
2018-02-21T03:23:01.228Z,19.20
2018-02-21T03:25:29.275Z,19.20
2018-02-21T03:27:58.067Z,19.30
2018-02-21T03:30:27.268Z,19.30
2018-02-21T03:32:56.459Z,19.20
2018-02-21T03:35:25.716Z,19.30
2018-02-21T03:37:54.284Z,19.30
2018-02-21T03:40:23.517Z,19.50
2018-02-21T03:42:51.950Z,19.60
2018-02-21T03:45:21.531Z,19.70
2018-02-21T03:47:50.488Z,20.40
2018-02-21T03:50:19.103Z,20.40
2018-02-21T03:52:47.280Z,20.70
2018-02-21T03:55:15.487Z,20.90
2018-02-21T03:57:44.047Z,21.00
2018-02-21T04:00:13.079Z,21.00
2018-02-21T04:02:41.119Z,21.00
2018-02-21T04:05:10.294Z,20.70
2018-02-21T04:07:38.867Z,20.80
2018-02-21T04:10:07.324Z,20.90
2018-02-21T04:12:36.136Z,21.10
2018-02-21T04:15:05.679Z,21.40
2018-02-21T04:17:36.059Z,21.50
2018-02-21T04:20:04.524Z,21.80
2018-02-21T04:22:33.091Z,21.90
2018-02-21T04:25:02.491Z,22.00
2018-02-21T04:27:31.659Z,22.50
2018-02-21T04:30:00.014Z,22.50
2018-02-21T04:32:29.142Z,22.80
2018-02-21T04:34:57.188Z,23.80
2018-02-21T04:37:25.959Z,25.00
2018-02-21T04:39:55.176Z,25.30
2018-02-21T04:42:23.611Z,25.00
2018-02-21T04:44:53.114Z,23.90
2018-02-21T04:47:22.459Z,23.60
2018-02-21T04:49:51.191Z,23.60
2018-02-21T04:52:20.515Z,23.70
2018-02-21T04:54:54.836Z,23.70
2018-02-21T05:22:54.945Z,25.10
2018-02-21T05:25:22.988Z,25.40
2018-02-21T05:27:51.775Z,25.70
2018-02-21T05:30:20.691Z,25.80
2018-02-21T05:32:49.045Z,25.80
2018-02-21T05:35:17.196Z,26.10
2018-02-21T05:37:45.374Z,26.20
2018-02-21T05:40:13.420Z,26.40
2018-02-21T05:42:41.471Z,26.60
2018-02-21T05:45:09.644Z,26.50
2018-02-21T05:47:37.684Z,26.70
2018-02-21T05:50:05.732Z,26.90
2018-02-21T05:52:33.898Z,26.90
2018-02-21T05:55:01.931Z,27.00
2018-02-21T05:57:29.975Z,27.20
2018-02-21T05:59:58.161Z,27.50
2018-02-21T06:02:26.936Z,27.50
2018-02-21T06:04:55.101Z,27.50
2018-02-21T06:07:23.272Z,27.80
2018-02-21T06:09:51.308Z,27.90
2018-02-21T06:12:19.363Z,27.70
2018-02-21T06:14:47.607Z,28.40
2018-02-21T06:17:15.651Z,28.70
2018-02-21T06:19:43.692Z,29.90
2018-02-21T06:22:11.863Z,30.30
2018-02-21T06:24:39.906Z,29.70
2018-02-21T06:27:07.955Z,29.30
2018-02-21T06:29:36.187Z,28.70
2018-02-21T06:32:04.259Z,28.40
2018-02-21T06:34:32.435Z,28.60
2018-02-21T06:37:00.603Z,28.50
2018-02-21T06:39:28.642Z,28.80
2018-02-21T06:41:56.911Z,28.20
2018-02-21T06:44:25.207Z,27.90
2018-02-21T06:46:53.999Z,27.80
2018-02-21T06:49:22.779Z,27.50
2018-02-21T06:51:50.946Z,27.50
2018-02-21T06:54:19.103Z,27.50
2018-02-21T06:56:47.153Z,27.60
2018-02-21T06:59:15.325Z,28.30
2018-02-21T07:01:43.375Z,28.20
2018-02-21T07:04:12.211Z,28.10
2018-02-21T07:06:40.543Z,28.10
2018-02-21T07:09:09.323Z,28.00
2018-02-21T07:11:38.099Z,27.80
2018-02-21T07:14:06.383Z,27.80
2018-02-21T07:16:35.163Z,28.10
2018-02-21T07:19:03.220Z,28.10
2018-02-21T07:21:31.388Z,28.60
2018-02-21T07:23:59.439Z,28.90
2018-02-21T07:26:27.627Z,30.20
2018-02-21T07:28:55.807Z,31.70
2018-02-21T07:31:23.859Z,32.70
2018-02-21T07:33:51.951Z,33.10
2018-02-21T07:36:20.260Z,32.70
2018-02-21T07:38:48.303Z,32.50
2018-02-21T07:41:16.356Z,30.40
2018-02-21T07:43:44.523Z,29.10
2018-02-21T07:46:12.560Z,29.10
2018-02-21T07:48:41.339Z,28.50
2018-02-21T07:51:09.516Z,28.50
2018-02-21T07:53:41.247Z,28.30
2018-02-21T07:56:09.289Z,28.70
2018-02-21T07:58:37.464Z,28.90
2018-02-21T08:01:05.496Z,29.20
2018-02-21T08:03:34.355Z,29.10
2018-02-21T08:06:02.619Z,29.10
2018-02-21T08:08:30.688Z,28.80
2018-02-21T08:10:58.734Z,29.20
2018-02-21T08:13:26.918Z,28.70
2018-02-21T08:15:54.980Z,29.20
2018-02-21T08:18:23.780Z,28.10
2018-02-21T08:20:51.969Z,28.00
2018-02-21T08:23:20.023Z,28.00
2018-02-21T08:25:48.073Z,28.00
2018-02-21T08:28:17.053Z,27.80
2018-02-21T08:30:45.964Z,27.80
2018-02-21T08:33:14.835Z,27.70
2018-02-21T08:35:43.012Z,27.60
2018-02-21T08:38:11.187Z,27.60
2018-02-21T08:40:39.242Z,27.80
2018-02-21T08:43:07.439Z,27.90
2018-02-21T08:45:35.482Z,28.50
2018-02-21T08:48:03.575Z,29.50
2018-02-21T08:50:31.747Z,29.20
2018-02-21T08:52:59.791Z,28.90
2018-02-21T08:55:27.831Z,28.30
2018-02-21T08:57:56.781Z,28.10
2018-02-21T09:00:24.848Z,28.10
2018-02-21T09:02:52.899Z,27.80
2018-02-21T09:05:21.084Z,28.00
2018-02-21T09:07:49.144Z,28.10
2018-02-21T09:10:17.183Z,28.20
2018-02-21T09:12:46.131Z,27.80
2018-02-21T09:15:14.168Z,27.80
2018-02-21T09:17:42.220Z,27.90
2018-02-21T09:20:11.135Z,27.90
2018-02-21T09:22:39.179Z,27.90
2018-02-21T09:25:07.971Z,28.00
2018-02-21T09:27:36.888Z,28.00
2018-02-21T09:30:04.969Z,28.00
2018-02-21T09:32:33.071Z,27.90
2018-02-21T09:35:01.235Z,27.90
2018-02-21T09:37:29.275Z,27.50
2018-02-21T09:39:57.563Z,27.40
2018-02-21T09:42:25.736Z,27.50
2018-02-21T09:44:53.799Z,27.40
2018-02-21T09:47:21.985Z,27.40
2018-02-21T09:49:50.195Z,27.30
2018-02-21T09:52:18.251Z,27.40
2018-02-21T09:54:46.339Z,27.20
2018-02-21T09:57:14.511Z,27.20
2018-02-21T09:59:42.567Z,27.50
2018-02-21T10:02:10.603Z,27.80
2018-02-21T10:04:39.572Z,27.80
2018-02-21T10:07:07.643Z,27.70
2018-02-21T10:09:35.850Z,27.20
2018-02-21T10:12:04.756Z,26.80
2018-02-21T10:14:32.863Z,26.80
2018-02-21T10:17:00.922Z,26.90
2018-02-21T10:19:29.096Z,27.00
2018-02-21T10:21:57.399Z,27.10
2018-02-21T10:24:25.465Z,27.10
2018-02-21T10:26:53.632Z,27.20
2018-02-21T10:29:21.685Z,27.30
2018-02-21T10:31:49.808Z,27.20
2018-02-21T10:34:18.082Z,27.10
2018-02-21T10:36:46.127Z,27.20
2018-02-21T10:39:14.163Z,27.10
2018-02-21T10:41:42.575Z,27.10
2018-02-21T10:44:10.667Z,27.00
2018-02-21T10:46:38.717Z,27.00
2018-02-21T10:49:06.889Z,27.20
2018-02-21T10:51:34.951Z,27.10
2018-02-21T10:54:03.256Z,26.80
2018-02-21T10:56:31.845Z,26.80
2018-02-21T10:58:59.895Z,26.60
2018-02-21T11:01:28.552Z,26.90
2018-02-21T11:03:57.519Z,26.70
2018-02-21T11:06:25.564Z,26.70
2018-02-21T11:08:53.619Z,26.90
2018-02-21T11:11:21.816Z,27.00
2018-02-21T11:13:49.886Z,27.10
2018-02-21T11:16:17.937Z,27.00
2018-02-21T11:18:46.121Z,27.00
2018-02-21T11:21:14.171Z,26.90
2018-02-21T11:23:42.653Z,27.00
2018-02-21T11:26:10.838Z,27.10
2018-02-21T11:28:38.879Z,27.10
2018-02-21T11:31:07.827Z,27.00
2018-02-21T11:33:36.044Z,27.00
2018-02-21T11:36:04.831Z,27.00
2018-02-21T11:38:33.612Z,26.90
2018-02-21T11:41:01.787Z,26.90
2018-02-21T11:43:30.050Z,26.90
2018-02-21T11:45:58.094Z,26.90
2018-02-21T11:48:27.131Z,27.10
2018-02-21T11:50:55.230Z,27.10
2018-02-21T11:53:24.159Z,27.20
2018-02-21T11:55:52.339Z,26.90
2018-02-21T11:58:20.380Z,26.80
2018-02-21T12:00:48.428Z,26.60
2018-02-21T12:03:17.344Z,26.90
2018-02-21T12:05:45.455Z,26.90
2018-02-21T12:08:13.514Z,27.00
2018-02-21T12:10:41.700Z,26.90
2018-02-21T12:13:09.780Z,26.80
2018-02-21T12:15:38.773Z,26.70
2018-02-21T12:18:06.949Z,26.70
2018-02-21T12:20:35.159Z,26.70
2018-02-21T12:23:03.947Z,26.70
2018-02-21T12:25:32.867Z,26.60
2018-02-21T12:28:00.911Z,26.60
2018-02-21T12:30:29.871Z,26.20
2018-02-21T12:33:00.024Z,26.20
2018-02-21T12:35:28.844Z,26.30
2018-02-21T12:37:56.887Z,26.20
2018-02-21T12:40:31.387Z,26.80
2018-02-21T12:42:59.433Z,26.70
2018-02-21T12:45:27.623Z,26.70
2018-02-21T12:47:56.826Z,26.80
2018-02-21T12:50:24.997Z,26.80
2018-02-21T12:52:53.053Z,26.70
2018-02-21T12:55:21.336Z,26.70
2018-02-21T12:57:49.386Z,26.60
2018-02-21T13:00:17.519Z,26.60
2018-02-21T13:02:45.708Z,26.60
2018-02-21T13:05:15.655Z,26.50
2018-02-21T13:07:43.716Z,26.50
2018-02-21T13:10:13.487Z,26.50
2018-02-21T13:12:42.418Z,26.50
2018-02-21T13:15:11.212Z,26.30
2018-02-21T13:17:41.412Z,26.20
2018-02-21T13:20:09.523Z,26.20
2018-02-21T13:22:37.568Z,26.10
2018-02-21T13:25:06.666Z,26.00
2018-02-21T13:27:36.703Z,26.00
2018-02-21T13:30:04.808Z,26.00
2018-02-21T13:32:33.944Z,25.90
2018-02-21T13:35:02.885Z,25.80
2018-02-21T13:37:30.943Z,25.80
2018-02-21T13:39:59.115Z,25.80
2018-02-21T13:42:27.155Z,25.70
2018-02-21T13:44:56.211Z,25.60
2018-02-21T13:47:24.532Z,25.60
2018-02-21T13:49:52.587Z,25.60
2018-02-21T13:52:20.667Z,25.60
2018-02-21T13:54:50.499Z,25.50
2018-02-21T13:57:20.060Z,25.30
2018-02-21T13:59:48.104Z,25.30
2018-02-21T14:02:17.206Z,25.30
2018-02-21T14:04:45.399Z,25.30
2018-02-21T14:07:13.599Z,25.10
2018-02-21T14:09:41.947Z,25.10
2018-02-21T14:12:10.057Z,25.10
2018-02-21T14:14:38.307Z,25.20
2018-02-21T14:17:06.592Z,25.10
2018-02-21T14:19:34.727Z,25.10
2018-02-21T14:22:02.807Z,25.10
2018-02-21T14:24:31.978Z,25.10
2018-02-21T14:27:00.965Z,24.90
2018-02-21T14:29:29.355Z,24.90
2018-02-21T14:31:58.267Z,24.80
2018-02-21T14:34:26.375Z,24.80
2018-02-21T14:36:54.414Z,24.80
2018-02-21T14:39:22.604Z,24.70
2018-02-21T14:41:50.647Z,24.70
2018-02-21T14:44:19.491Z,24.60
2018-02-21T14:46:47.668Z,24.60
2018-02-21T14:49:15.853Z,24.60
2018-02-21T14:51:43.912Z,24.60
2018-02-21T14:54:12.986Z,24.60
2018-02-21T14:56:41.088Z,24.60
2018-02-21T14:59:09.955Z,24.60
2018-02-21T15:01:38.139Z,24.50
2018-02-21T15:04:06.265Z,24.50
2018-02-21T15:06:37.539Z,24.40
2018-02-21T15:09:09.219Z,24.40
2018-02-21T15:11:37.869Z,24.50
2018-02-21T15:14:08.385Z,24.30
2018-02-21T15:16:38.237Z,24.30
2018-02-21T15:19:10.040Z,24.30
2018-02-21T15:21:38.952Z,24.30
2018-02-21T15:24:07.173Z,24.30
2018-02-21T15:26:35.347Z,24.30
2018-02-21T15:29:04.255Z,24.40
2018-02-21T15:31:34.814Z,24.30
2018-02-21T15:34:03.199Z,24.40
2018-02-21T15:36:31.259Z,24.30
2018-02-21T15:39:07.387Z,24.30
2018-02-21T15:41:35.610Z,24.10
2018-02-21T15:44:03.872Z,24.30
2018-02-21T15:46:35.255Z,24.30
2018-02-21T15:49:03.491Z,24.30
2018-02-21T15:51:32.595Z,24.30
2018-02-21T15:54:00.775Z,24.30
2018-02-21T15:56:28.835Z,24.30
2018-02-21T15:58:56.899Z,24.20
2018-02-21T16:01:25.084Z,24.10
2018-02-21T16:03:53.163Z,24.00
2018-02-21T16:06:22.138Z,24.00
2018-02-21T16:08:50.314Z,24.00
2018-02-21T16:11:18.352Z,24.00
2018-02-21T16:13:47.219Z,24.00
2018-02-21T16:16:18.458Z,23.90
2018-02-21T16:18:51.203Z,23.90
2018-02-21T16:21:19.275Z,23.90
2018-02-21T16:23:47.322Z,23.90
2018-02-21T16:26:15.431Z,23.80
2018-02-21T16:28:43.599Z,23.90
2018-02-21T16:31:11.644Z,23.90
2018-02-21T16:33:48.888Z,23.80
2018-02-21T16:36:20.419Z,23.80
2018-02-21T16:38:48.502Z,23.80
2018-02-21T16:41:16.545Z,23.80
2018-02-21T16:43:44.648Z,23.80
2018-02-21T16:46:13.004Z,23.70
2018-02-21T16:48:41.168Z,23.60
2018-02-21T16:51:09.580Z,23.60
2018-02-21T16:53:38.714Z,23.60
2018-02-21T16:56:08.415Z,23.60
2018-02-21T16:58:36.455Z,23.60
2018-02-21T17:01:04.643Z,23.50
2018-02-21T17:16:21.327Z,23.70
2018-02-21T17:18:49.420Z,23.70
2018-02-21T17:21:17.491Z,23.60
2018-02-21T17:23:45.695Z,23.60
2018-02-21T17:26:14.661Z,23.60
2018-02-21T17:28:42.719Z,23.60
2018-02-21T17:31:10.898Z,23.60
2018-02-21T17:33:39.058Z,23.70
2018-02-21T17:36:07.278Z,23.70
2018-02-21T17:38:35.652Z,23.70
2018-02-21T17:41:09.628Z,23.70
2018-02-21T17:43:37.978Z,23.70
2018-02-21T17:46:06.262Z,23.70
2018-02-21T17:48:34.473Z,23.60
2018-02-21T17:51:02.890Z,23.60
2018-02-21T17:53:31.195Z,23.60
2018-02-21T17:55:59.402Z,23.60
2018-02-21T17:58:27.756Z,23.60
2018-02-21T18:00:56.192Z,23.60
2018-02-21T18:03:24.377Z,23.50
2018-02-21T18:05:53.535Z,23.50
2018-02-21T18:08:21.772Z,23.50
2018-02-21T18:10:49.978Z,23.60
2018-02-21T18:13:18.395Z,23.50
2018-02-21T18:15:46.719Z,23.50
2018-02-21T18:18:15.654Z,23.40
2018-02-21T18:20:44.040Z,23.40
2018-02-21T18:23:12.322Z,23.40
2018-02-21T18:25:40.562Z,23.40
2018-02-21T18:28:08.906Z,23.40
2018-02-21T18:30:37.171Z,23.40
2018-02-21T18:33:06.071Z,23.40
2018-02-21T18:35:35.083Z,23.40
2018-02-21T18:38:03.143Z,23.30
2018-02-21T18:40:31.955Z,23.40
2018-02-21T18:43:00.161Z,23.40
2018-02-21T18:45:28.500Z,23.40
2018-02-21T18:47:56.551Z,23.40
2018-02-21T18:50:25.498Z,23.40
2018-02-21T18:52:53.563Z,23.30
2018-02-21T18:55:21.683Z,23.30
2018-02-21T18:57:50.159Z,23.30
2018-02-21T19:00:18.234Z,23.30
2018-02-21T19:02:46.303Z,23.40
2018-02-21T19:05:14.494Z,23.30
2018-02-21T19:07:43.291Z,23.20
2018-02-21T19:10:12.113Z,23.20
2018-02-21T19:12:40.323Z,23.20
2018-02-21T19:15:08.419Z,23.30
2018-02-21T19:17:36.483Z,23.30
2018-02-21T19:20:04.687Z,23.20
2018-02-21T19:22:33.490Z,23.20
2018-02-21T19:25:01.552Z,23.10
2018-02-21T19:27:30.507Z,23.20
2018-02-21T19:29:58.571Z,23.20
2018-02-21T19:32:26.623Z,23.20
2018-02-21T19:34:54.814Z,23.20
2018-02-21T19:37:22.871Z,23.20
2018-02-21T19:39:50.944Z,23.20
2018-02-21T19:42:19.136Z,23.20
2018-02-21T19:44:47.236Z,23.20
2018-02-21T19:47:15.316Z,23.10
2018-02-21T19:49:44.248Z,23.10
2018-02-21T19:52:12.306Z,23.10
2018-02-21T19:54:40.447Z,23.10
2018-02-21T19:57:08.655Z,23.10
2018-02-21T19:59:36.845Z,23.00
2018-02-21T20:02:04.948Z,23.10
2018-02-21T20:04:33.179Z,23.00
2018-02-21T20:07:01.239Z,23.00
2018-02-21T20:09:30.064Z,23.00
2018-02-21T20:11:58.268Z,23.00
2018-02-21T20:14:26.460Z,23.00
2018-02-21T20:16:54.539Z,23.00
2018-02-21T20:19:23.488Z,23.00
2018-02-21T20:21:51.559Z,23.00
2018-02-21T20:24:19.732Z,23.00
2018-02-21T20:26:47.931Z,23.00
2018-02-21T20:29:15.995Z,23.00
2018-02-21T20:31:44.058Z,23.00
2018-02-21T20:34:12.292Z,23.00
2018-02-21T20:36:41.087Z,23.00
2018-02-21T20:39:09.915Z,22.90
2018-02-21T20:41:38.108Z,22.90
2018-02-21T20:44:06.191Z,22.90
2018-02-21T20:46:34.251Z,22.90
2018-02-21T20:49:02.448Z,22.80
2018-02-21T20:51:30.518Z,22.90
2018-02-21T20:53:58.622Z,22.90
2018-02-21T20:56:27.603Z,22.80
2018-02-21T20:58:56.390Z,22.80
2018-02-21T21:01:25.326Z,22.80
2018-02-21T21:03:53.599Z,22.80
2018-02-21T21:06:21.659Z,22.90
2018-02-21T21:08:49.777Z,22.90
2018-02-21T21:11:17.975Z,22.90
2018-02-21T21:13:46.153Z,22.90
2018-02-21T21:16:14.955Z,22.80
2018-02-21T21:18:43.887Z,22.80
2018-02-21T21:21:11.959Z,22.80
2018-02-21T21:23:40.032Z,22.80
2018-02-21T21:26:08.235Z,22.80
2018-02-21T21:28:36.299Z,22.80
2018-02-21T21:31:04.393Z,22.80
2018-02-21T21:33:32.707Z,22.70
2018-02-21T21:36:00.766Z,22.80
2018-02-21T21:38:29.572Z,22.80
2018-02-21T21:40:57.774Z,22.80
2018-02-21T21:43:25.847Z,22.60
2018-02-21T21:45:53.920Z,22.50
2018-02-21T21:48:22.111Z,22.50
2018-02-21T21:50:50.213Z,22.50
2018-02-21T21:53:19.014Z,22.40
2018-02-21T21:55:47.947Z,22.40
2018-02-21T21:58:16.019Z,22.40
2018-02-21T22:00:44.083Z,22.40
2018-02-21T22:03:12.411Z,22.40
2018-02-21T22:05:40.482Z,22.40
2018-02-21T22:08:08.603Z,22.40
2018-02-21T22:10:36.795Z,22.40
2018-02-21T22:13:04.860Z,22.40
2018-02-21T22:15:32.919Z,22.40
2018-02-21T22:18:01.136Z,22.40
2018-02-21T22:20:29.214Z,22.30
2018-02-21T22:22:57.335Z,22.40
2018-02-21T22:25:26.267Z,22.30
2018-02-21T22:27:54.331Z,22.30
2018-02-21T22:30:22.395Z,22.30
2018-02-21T22:32:50.587Z,22.30
2018-02-21T22:35:18.652Z,22.20
2018-02-21T22:37:46.718Z,22.10
2018-02-21T22:40:14.911Z,22.20
2018-02-21T22:42:42.982Z,22.20
2018-02-21T22:45:11.056Z,22.20
2018-02-21T22:47:39.251Z,22.20
2018-02-21T22:50:07.324Z,22.20
2018-02-21T22:52:35.391Z,22.20
2018-02-21T22:55:03.587Z,22.20
2018-02-21T22:57:31.659Z,22.20
2018-02-21T22:59:59.723Z,22.20
2018-02-21T23:02:27.917Z,22.20
2018-02-21T23:04:56.861Z,22.00
2018-02-21T23:07:24.954Z,22.00
2018-02-21T23:09:53.158Z,22.00
2018-02-21T23:12:21.967Z,22.00
2018-02-21T23:14:50.019Z,22.00
2018-02-21T23:17:18.964Z,22.10
2018-02-21T23:19:47.015Z,22.10
2018-02-21T23:22:15.084Z,22.10
2018-02-21T23:24:43.360Z,22.00
2018-02-21T23:27:11.407Z,22.10
2018-02-21T23:29:40.219Z,22.10
2018-02-21T23:32:08.422Z,22.10
2018-02-21T23:34:36.530Z,22.10
2018-02-21T23:37:04.591Z,22.00
2018-02-21T23:39:32.787Z,21.90
2018-02-21T23:42:00.855Z,21.70
2018-02-21T23:44:29.043Z,21.80
2018-02-21T23:46:57.978Z,21.90
2018-02-21T23:49:26.035Z,21.90
2018-02-21T23:51:54.115Z,21.90
2018-02-21T23:54:22.379Z,21.80
2018-02-21T23:56:51.187Z,21.70
2018-02-21T23:59:19.319Z,21.70
